Time;durP1;ratioP1;P1;durP2;ratioP2;P2;SDS_P1;SDS_P2;PMS_P1;PMS_P2;Temp;Humidity;BMP_temperature;BMP_pressure;BME280_temperature;BME280_humidity;BME280_pressure;Samples;Min_cycle;Max_cycle;Signal;HPM_P1;HPM_P2
2023/10/03 00:00:39;;;;;;;11.40;8.10;;;;;;;21.24;48.05;98778.12;105074;1265;65834;-43
2023/10/03 00:03:08;;;;;;;12.80;8.10;;;;;;;21.24;48.07;98773.14;105016;1260;72632;-45
2023/10/03 00:05:38;;;;;;;12.80;8.10;;;;;;;21.23;47.97;98775.13;105143;1260;61279;-45
2023/10/03 00:08:05;;;;;;;11.60;8.00;;;;;;;21.23;48.07;98772.95;105206;1260;61478;-44
2023/10/03 00:10:33;;;;;;;14.50;7.70;;;;;;;21.22;47.94;98770.04;105042;1263;74559;-44
2023/10/03 00:13:01;;;;;;;10.40;7.70;;;;;;;21.22;47.99;98769.02;105544;1264;66268;-44
2023/10/03 00:15:28;;;;;;;9.70;7.20;;;;;;;21.22;48.02;98771.36;105282;1259;72617;-44
2023/10/03 00:17:56;;;;;;;12.60;7.30;;;;;;;21.22;48.16;98765.83;105706;1265;61276;-44
2023/10/03 00:20:23;;;;;;;9.80;7.60;;;;;;;21.22;48.07;98759.60;105330;1259;61272;-44
2023/10/03 00:22:51;;;;;;;12.00;8.10;;;;;;;21.22;48.08;98756.48;105842;1263;74494;-44
2023/10/03 00:25:18;;;;;;;8.80;7.50;;;;;;;21.22;48.22;98754.70;105376;1264;65550;-44
2023/10/03 00:27:51;;;;;;;10.20;7.60;;;;;;;21.22;48.21;98750.64;105171;1260;72382;-44
2023/10/03 00:30:19;;;;;;;11.10;8.00;;;;;;;21.21;48.19;98749.77;105226;1260;61406;-44
2023/10/03 00:32:50;;;;;;;9.40;7.50;;;;;;;21.22;48.22;98752.83;105288;1265;61194;-44
2023/10/03 00:35:22;;;;;;;11.40;7.80;;;;;;;21.22;48.16;98750.41;105294;1263;75027;-44
2023/10/03 00:37:52;;;;;;;10.30;7.60;;;;;;;21.21;48.20;98752.89;105008;1265;65654;-44
2023/10/03 00:42:54;;;;;;;9.70;7.10;;;;;;;21.21;48.10;98752.89;105636;1262;61280;-44
2023/10/03 00:45:21;;;;;;;8.70;7.20;;;;;;;21.21;48.11;98751.32;105199;1261;61259;-44
2023/10/03 00:47:49;;;;;;;9.90;7.20;;;;;;;21.21;48.06;98750.78;105706;1263;74607;-44
2023/10/03 00:50:19;;;;;;;10.70;7.70;;;;;;;21.20;47.97;98747.48;105010;1265;65098;-44
2023/10/03 00:52:49;;;;;;;9.30;6.80;;;;;;;21.20;48.08;98748.50;104875;1265;72614;-44
2023/10/03 00:55:17;;;;;;;13.60;7.20;;;;;;;21.20;48.21;98744.76;105037;1262;61320;-44
2023/10/03 00:57:45;;;;;;;11.00;6.80;;;;;;;21.21;48.23;98744.14;105166;1262;61377;-44
2023/10/03 01:00:15;;;;;;;10.40;7.00;;;;;;;21.20;48.17;98745.62;105200;1265;74708;-44
2023/10/03 01:02:47;;;;;;;10.70;7.10;;;;;;;21.20;48.18;98743.89;104922;1268;65988;-44
2023/10/03 01:05:16;;;;;;;12.50;7.30;;;;;;;21.20;48.02;98746.23;105058;1262;72646;-44
2023/10/03 01:07:44;;;;;;;9.70;7.10;;;;;;;21.20;48.25;98745.36;105091;1264;61262;-44
2023/10/03 01:10:13;;;;;;;9.50;6.80;;;;;;;21.20;48.14;98745.14;105131;1262;61346;-44
2023/10/03 01:12:43;;;;;;;10.50;6.90;;;;;;;21.20;48.09;98739.23;105045;1265;74626;-44
2023/10/03 01:15:16;;;;;;;10.50;7.40;;;;;;;21.20;48.05;98738.68;105052;1263;65949;-44
2023/10/03 01:17:53;;;;;;;8.70;6.80;;;;;;;21.20;48.18;98735.23;105544;1265;72636;-44
2023/10/03 01:20:28;;;;;;;12.30;6.50;;;;;;;21.19;48.07;98735.23;104993;1265;61328;-44
2023/10/03 01:22:56;;;;;;;9.40;6.90;;;;;;;21.19;48.15;98734.23;105569;1262;62060;-45
2023/10/03 01:25:27;;;;;;;11.90;7.10;;;;;;;21.19;48.15;98728.46;105041;1264;74509;-45
2023/10/03 01:27:56;;;;;;;11.10;6.40;;;;;;;21.19;48.29;98729.69;105405;1266;64985;-44
2023/10/03 01:30:24;;;;;;;8.50;6.70;;;;;;;21.19;48.19;98726.80;105088;1263;72616;-43
2023/10/03 01:32:56;;;;;;;10.70;7.00;;;;;;;21.19;48.23;98719.18;105667;1264;61345;-44
2023/10/03 01:35:25;;;;;;;10.30;6.90;;;;;;;21.18;48.11;98721.10;105046;1261;61289;-44
2023/10/03 01:37:52;;;;;;;10.30;7.20;;;;;;;21.18;48.06;98722.68;105525;1261;74585;-44
2023/10/03 01:40:20;;;;;;;9.00;6.30;;;;;;;21.18;48.27;98722.34;105195;1263;66109;-44
2023/10/03 01:42:47;;;;;;;8.60;6.60;;;;;;;21.17;48.23;98718.21;105237;1259;72761;-44
2023/10/03 01:45:21;;;;;;;10.80;6.90;;;;;;;21.17;48.27;98720.24;105054;1263;61283;-44
2023/10/03 01:47:50;;;;;;;10.90;6.00;;;;;;;21.17;48.32;98714.94;105033;1259;61284;-45
2023/10/03 01:50:19;;;;;;;9.00;6.10;;;;;;;21.16;48.34;98716.08;105134;1265;74606;-44
2023/10/03 01:52:48;;;;;;;8.10;6.10;;;;;;;21.16;48.29;98718.25;104994;1264;65822;-44
2023/10/03 01:55:17;;;;;;;11.30;6.40;;;;;;;21.16;48.29;98714.56;105065;1259;70401;-43
2023/10/03 01:57:46;;;;;;;9.80;6.20;;;;;;;21.16;48.36;98711.30;105105;1265;61379;-43
2023/10/03 02:02:52;;;;;;;10.80;6.40;;;;;;;21.15;48.37;98707.00;105640;1265;74685;-45
2023/10/03 02:05:22;;;;;;;10.50;6.10;;;;;;;21.15;48.11;98700.30;105289;1260;65201;-45
2023/10/03 02:07:51;;;;;;;8.50;6.00;;;;;;;21.15;48.30;98697.20;105805;1259;72417;-46
2023/10/03 02:10:19;;;;;;;7.90;6.50;;;;;;;21.14;48.36;98697.80;105316;1264;61273;-45
2023/10/03 02:12:49;;;;;;;8.80;6.20;;;;;;;21.15;48.40;98694.16;105215;1263;61375;-45
2023/10/03 02:15:22;;;;;;;7.60;5.90;;;;;;;21.15;48.29;98694.94;105158;1260;74606;-45
2023/10/03 02:17:50;;;;;;;8.50;6.00;;;;;;;21.15;48.33;98692.13;105217;1261;65109;-44
2023/10/03 02:20:21;;;;;;;8.60;6.40;;;;;;;21.14;48.44;98690.25;105143;1264;72641;-44
2023/10/03 02:22:55;;;;;;;9.40;6.10;;;;;;;21.14;48.41;98692.20;105027;1262;61375;-44
2023/10/03 02:25:27;;;;;;;7.30;5.70;;;;;;;21.14;48.26;98690.09;105220;1259;61291;-43
2023/10/03 02:27:56;;;;;;;9.20;6.30;;;;;;;21.14;48.45;98691.95;105117;1262;74736;-43
2023/10/03 02:30:27;;;;;;;11.40;6.40;;;;;;;21.14;48.36;98693.73;105247;1263;65074;-43
2023/10/03 02:32:57;;;;;;;8.00;5.60;;;;;;;21.13;48.43;98692.02;105664;1265;72707;-43
2023/10/03 02:35:25;;;;;;;7.80;5.60;;;;;;;21.13;48.30;98694.10;105294;1259;61391;-44
2023/10/03 02:37:56;;;;;;;10.50;6.20;;;;;;;21.12;48.46;98693.70;105770;1260;61294;-43
2023/10/03 02:40:28;;;;;;;7.60;5.90;;;;;;;21.13;48.29;98691.84;105289;1263;74609;-45
2023/10/03 02:42:59;;;;;;;7.60;6.10;;;;;;;21.13;48.38;98690.29;105469;1265;64443;-45
2023/10/03 02:45:27;;;;;;;8.90;6.10;;;;;;;21.13;48.28;98694.48;105048;1263;71486;-45
2023/10/03 02:48:03;;;;;;;6.90;5.60;;;;;;;21.13;48.37;98691.31;105429;1265;61274;-45
2023/10/03 02:50:34;;;;;;;8.80;5.60;;;;;;;21.13;48.29;98692.70;105013;1265;61920;-44
2023/10/03 02:53:05;;;;;;;8.10;6.20;;;;;;;21.13;48.29;98691.06;105295;1260;73516;-44
2023/10/03 02:55:33;;;;;;;12.70;5.80;;;;;;;21.13;48.27;98689.50;105048;1259;66282;-44
2023/10/03 02:58:00;;;;;;;9.00;5.80;;;;;;;21.12;48.35;98687.54;104974;1263;72662;-44
2023/10/03 03:00:27;;;;;;;9.80;5.90;;;;;;;21.12;48.22;98688.64;105061;1263;61279;-44
2023/10/03 03:02:56;;;;;;;13.70;6.50;;;;;;;21.12;48.28;98682.27;104914;1262;61282;-43
2023/10/03 03:05:24;;;;;;;8.90;6.10;;;;;;;21.12;48.33;98680.15;105026;1263;74610;-44
2023/10/03 03:07:58;;;;;;;9.70;6.20;;;;;;;21.12;48.19;98679.45;105038;1271;64705;-45
2023/10/03 03:10:28;;;;;;;12.90;6.00;;;;;;;21.11;48.21;98676.14;104951;1263;70840;-44
2023/10/03 03:12:55;;;;;;;8.10;5.80;;;;;;;21.11;48.33;98675.38;105462;1264;61239;-44
2023/10/03 03:15:23;;;;;;;9.40;5.80;;;;;;;21.10;48.26;98675.20;105077;1261;61353;-44
2023/10/03 03:17:53;;;;;;;7.90;5.80;;;;;;;21.11;48.15;98673.80;104941;1263;74481;-45
2023/10/03 03:20:25;;;;;;;10.70;6.20;;;;;;;21.10;48.19;98672.55;105028;1263;65817;-46
2023/10/03 03:22:53;;;;;;;12.60;6.50;;;;;;;21.10;48.10;98674.73;105576;1263;73128;-45
2023/10/03 03:25:42;;;;;;;11.60;6.40;;;;;;;21.10;48.12;98674.80;105084;1264;61147;-43
2023/10/03 03:28:13;;;;;;;8.50;6.00;;;;;;;21.09;48.04;98672.59;105330;1263;61406;-44
2023/10/03 03:30:48;;;;;;;10.80;5.90;;;;;;;21.09;48.13;98669.00;105090;1261;74455;-44
2023/10/03 03:33:20;;;;;;;12.50;5.90;;;;;;;21.08;48.15;98664.93;105170;1265;66114;-44
2023/10/03 03:35:47;;;;;;;9.90;6.50;;;;;;;21.08;48.04;98667.87;105228;1263;72519;-44
2023/10/03 03:38:15;;;;;;;10.00;6.00;;;;;;;21.07;48.16;98668.33;105262;1264;61265;-44
2023/10/03 03:40:57;;;;;;;12.40;6.40;;;;;;;21.07;47.99;98666.60;105105;1261;61176;-44
2023/10/03 03:43:25;;;;;;;8.70;5.90;;;;;;;21.06;47.91;98669.00;105023;1266;74639;-44
2023/10/03 03:45:52;;;;;;;9.10;5.90;;;;;;;21.06;47.80;98665.65;104993;1259;66289;-43
2023/10/03 03:48:22;;;;;;;9.20;6.00;;;;;;;21.06;47.90;98665.33;105120;1266;72485;-43
2023/10/03 03:50:50;;;;;;;12.70;5.70;;;;;;;21.05;47.91;98665.54;105238;1266;61280;-44
2023/10/03 03:53:19;;;;;;;10.80;6.10;;;;;;;21.04;48.05;98664.95;105128;1266;61306;-44
2023/10/03 03:55:46;;;;;;;10.10;6.30;;;;;;;21.04;47.89;98671.11;105061;1266;74587;-43
2023/10/03 03:58:18;;;;;;;9.00;6.20;;;;;;;21.04;47.87;98664.31;105098;1263;65924;-43
2023/10/03 04:00:50;;;;;;;12.70;6.10;;;;;;;21.04;47.80;98664.91;105085;1263;72744;-44
2023/10/03 04:03:19;;;;;;;10.10;6.40;;;;;;;21.03;47.86;98665.99;105050;1264;61283;-45
2023/10/03 04:05:47;;;;;;;10.50;5.80;;;;;;;21.02;47.76;98660.45;105079;1261;61276;-44
2023/10/03 04:08:15;;;;;;;8.90;5.90;;;;;;;21.02;47.81;98659.88;105208;1265;74391;-44
2023/10/03 04:10:43;;;;;;;14.00;5.60;;;;;;;21.02;47.81;98655.75;105227;1264;64923;-45
2023/10/03 04:13:10;;;;;;;7.80;5.60;;;;;;;21.01;47.85;98657.99;105312;1263;72654;-45
2023/10/03 04:15:39;;;;;;;9.90;6.30;;;;;;;21.01;47.93;98655.33;105249;1273;61280;-45
2023/10/03 04:18:08;;;;;;;10.10;6.10;;;;;;;21.00;47.75;98656.95;105368;1261;61209;-45
2023/10/03 04:20:39;;;;;;;10.70;6.40;;;;;;;21.00;47.80;98657.09;105171;1263;73870;-44
2023/10/03 04:23:08;;;;;;;8.90;6.30;;;;;;;21.00;47.70;98658.73;105209;1270;66092;-44
2023/10/03 04:25:37;;;;;;;13.80;6.30;;;;;;;20.99;47.83;98655.44;105068;1270;72668;-44
2023/10/03 04:28:05;;;;;;;14.20;6.00;;;;;;;20.99;47.70;98659.23;105145;1265;61279;-44
2023/10/03 04:30:33;;;;;;;10.70;6.30;;;;;;;20.98;47.80;98657.98;105085;1265;61344;-45
2023/10/03 04:33:00;;;;;;;12.90;6.40;;;;;;;20.98;47.69;98657.50;105185;1263;74512;-44
2023/10/03 04:35:29;;;;;;;11.20;6.00;;;;;;;20.97;47.65;98655.84;105162;1264;66241;-45
2023/10/03 04:37:57;;;;;;;9.60;5.80;;;;;;;20.97;47.59;98656.63;105561;1263;72596;-44
2023/10/03 04:40:31;;;;;;;9.90;6.20;;;;;;;20.96;47.70;98653.33;105151;1263;61640;-44
2023/10/03 04:42:58;;;;;;;9.40;6.00;;;;;;;20.96;47.73;98655.19;105508;1263;61184;-45
2023/10/03 04:45:26;;;;;;;10.00;6.10;;;;;;;20.96;47.71;98654.01;105234;1260;74697;-44
2023/10/03 04:47:53;;;;;;;10.90;5.80;;;;;;;20.95;47.66;98655.02;105094;1273;65940;-43
2023/10/03 04:50:25;;;;;;;14.50;6.40;;;;;;;20.95;47.66;98657.64;105061;1261;72456;-44
2023/10/03 04:52:53;;;;;;;10.80;5.90;;;;;;;20.95;47.71;98657.00;108878;1260;59313;-44
2023/10/03 04:55:21;;;;;;;10.40;6.10;;;;;;;20.94;47.83;98657.45;106605;1259;61212;-45
2023/10/03 04:57:52;;;;;;;9.00;6.30;;;;;;;20.94;47.79;98661.04;105827;1260;74600;-46
2023/10/03 05:00:21;;;;;;;9.40;6.10;;;;;;;20.94;47.91;98658.70;105044;1264;64965;-45
2023/10/03 05:02:50;;;;;;;8.20;5.70;;;;;;;20.95;47.58;98662.45;105649;1260;71189;-43
2023/10/03 05:05:20;;;;;;;8.90;6.00;;;;;;;20.94;47.69;98660.65;105130;1268;61247;-45
2023/10/03 05:07:52;;;;;;;11.00;6.80;;;;;;;20.95;47.86;98662.77;105712;1263;61243;-45
2023/10/03 05:10:20;;;;;;;9.90;5.80;;;;;;;20.95;47.78;98666.73;105141;1260;73731;-46
2023/10/03 05:12:48;;;;;;;10.80;5.80;;;;;;;20.95;47.76;98666.89;107293;1261;65414;-45
2023/10/03 05:15:16;;;;;;;10.90;6.10;;;;;;;20.96;47.89;98667.63;105064;1263;72701;-49
2023/10/03 05:17:44;;;;;;;12.50;6.10;;;;;;;20.97;48.10;98669.05;108741;1260;59290;-50
2023/10/03 05:20:15;;;;;;;13.20;6.30;;;;;;;20.98;48.34;98666.91;106254;1261;61280;-48
2023/10/03 05:22:43;;;;;;;12.10;6.10;;;;;;;21.01;48.35;98664.89;104929;1263;75549;-51
2023/10/03 05:25:11;;;;;;;17.00;6.40;;;;;;;21.02;48.50;98666.35;105154;1273;66108;-47
2023/10/03 05:27:41;;;;;;;22.60;5.90;;;;;;;21.04;48.52;98668.77;104990;1265;72657;-46
2023/10/03 05:30:14;;;;;;;14.40;6.00;;;;;;;21.06;48.65;98668.98;105028;1273;61286;-46
2023/10/03 05:32:45;;;;;;;11.50;6.80;;;;;;;21.08;48.70;98669.43;104987;1260;61286;-45
2023/10/03 05:35:12;;;;;;;13.20;6.20;;;;;;;21.09;48.91;98671.66;105047;1260;74388;-45
2023/10/03 05:37:40;;;;;;;13.20;6.60;;;;;;;21.11;49.14;98673.35;106242;1262;65990;-47
2023/10/03 05:40:11;;;;;;;12.80;6.30;;;;;;;21.13;49.22;98674.97;104934;1266;73667;-45
2023/10/03 05:42:43;;;;;;;14.20;6.60;;;;;;;21.14;49.18;98672.74;105043;1260;61388;-40
2023/10/03 05:45:17;;;;;;;12.40;6.30;;;;;;;21.16;49.04;98672.34;105005;1266;61350;-40
2023/10/03 05:47:46;;;;;;;11.80;6.20;;;;;;;21.16;49.07;98671.55;104938;1265;74300;-40
2023/10/03 05:50:16;;;;;;;10.60;6.00;;;;;;;21.17;48.98;98667.23;105027;1264;65261;-40
2023/10/03 05:52:44;;;;;;;12.50;6.70;;;;;;;21.17;48.77;98670.81;104806;1263;72663;-40
2023/10/03 05:55:11;;;;;;;16.10;6.50;;;;;;;21.18;48.82;98670.27;104996;1264;61434;-42
2023/10/03 05:57:42;;;;;;;9.90;6.50;;;;;;;21.17;48.92;98666.61;105018;1260;61378;-42
2023/10/03 06:00:16;;;;;;;12.10;6.10;;;;;;;21.17;48.82;98663.88;104814;1263;75767;-40
2023/10/03 06:02:44;;;;;;;12.00;6.40;;;;;;;21.19;48.80;98667.19;105581;1260;65339;-41
2023/10/03 06:05:12;;;;;;;12.40;6.50;;;;;;;21.19;48.73;98667.84;104775;1260;72620;-41
2023/10/03 06:07:41;;;;;;;13.10;6.10;;;;;;;21.20;48.76;98666.45;106651;1260;59856;-43
2023/10/03 06:10:13;;;;;;;13.50;6.20;;;;;;;21.20;49.02;98667.55;105038;1260;61195;-41
2023/10/03 06:12:40;;;;;;;10.30;6.40;;;;;;;21.22;49.00;98671.25;104696;1264;74356;-42
2023/10/03 06:15:08;;;;;;;16.20;6.20;;;;;;;21.24;48.98;98667.98;105186;1261;66533;-41
2023/10/03 06:17:36;;;;;;;9.10;5.90;;;;;;;21.25;49.08;98667.55;105970;1263;71700;-44
2023/10/03 06:20:06;;;;;;;12.60;7.40;;;;;;;21.27;49.11;98664.96;104998;1263;61292;-44
2023/10/03 06:22:33;;;;;;;63.80;33.00;;;;;;;21.29;49.35;98665.56;105222;1264;61172;-47
2023/10/03 06:25:03;;;;;;;46.50;24.80;;;;;;;21.33;49.44;98665.60;104975;1261;73323;-54
2023/10/03 06:27:32;;;;;;;41.00;22.30;;;;;;;21.35;49.49;98665.37;104967;1267;64353;-49
2023/10/03 06:30:06;;;;;;;31.90;16.00;;;;;;;21.37;49.65;98664.48;104684;1265;72339;-51
2023/10/03 06:32:35;;;;;;;34.00;18.50;;;;;;;21.39;49.63;98666.24;104644;1266;61301;-49
2023/10/03 06:35:05;;;;;;;33.20;14.90;;;;;;;21.40;49.61;98667.23;104982;1260;61360;-48
2023/10/03 06:37:33;;;;;;;41.10;13.30;;;;;;;21.41;49.85;98667.63;104987;1261;74323;-50
2023/10/03 06:40:06;;;;;;;29.70;12.10;;;;;;;21.40;49.61;98669.40;106790;1261;65616;-51
2023/10/03 06:42:35;;;;;;;25.30;10.70;;;;;;;21.39;49.55;98659.95;105194;1267;73054;-49
2023/10/03 06:45:09;;;;;;;22.20;9.60;;;;;;;21.39;49.56;98662.05;104864;1263;61295;-52
2023/10/03 06:47:40;;;;;;;24.90;9.50;;;;;;;21.39;49.75;98663.52;105117;1263;61155;-49
2023/10/03 06:50:08;;;;;;;26.30;13.00;;;;;;;21.41;49.84;98667.08;104935;1263;74628;-41
2023/10/03 06:52:35;;;;;;;22.50;12.40;;;;;;;21.44;50.34;98667.50;105038;1264;65132;-44
2023/10/03 06:55:06;;;;;;;22.90;11.60;;;;;;;21.48;50.48;98667.14;104882;1261;72298;-46
2023/10/03 06:57:34;;;;;;;19.60;10.70;;;;;;;21.51;50.25;98665.98;104852;1264;61379;-46
2023/10/03 07:00:02;;;;;;;25.00;10.00;;;;;;;21.52;50.18;98665.71;105033;1260;61302;-45
2023/10/03 07:02:31;;;;;;;20.80;9.50;;;;;;;21.53;50.24;98665.89;104816;1263;75557;-40
2023/10/03 07:04:59;;;;;;;23.00;9.10;;;;;;;21.54;50.23;98661.95;106912;1261;65365;-47
2023/10/03 07:07:26;;;;;;;21.10;8.60;;;;;;;21.58;50.35;98663.63;108271;1259;72701;-46
2023/10/03 07:09:54;;;;;;;17.20;8.70;;;;;;;21.60;50.34;98664.63;104728;1264;61289;-43
2023/10/03 07:12:22;;;;;;;15.70;8.50;;;;;;;21.62;50.54;98664.90;105279;1261;61293;-43
2023/10/03 07:14:49;;;;;;;14.10;7.90;;;;;;;21.63;50.27;98668.98;106813;1259;74647;-45
2023/10/03 07:17:17;;;;;;;15.90;8.00;;;;;;;21.65;50.42;98666.01;104887;1263;67258;-45
2023/10/03 07:19:46;;;;;;;23.70;14.60;;;;;;;21.68;50.42;98667.41;104947;1261;72676;-43
2023/10/03 07:22:14;;;;;;;20.30;12.70;;;;;;;21.69;50.30;98663.46;106459;1263;61296;-46
2023/10/03 07:24:43;;;;;;;30.00;15.00;;;;;;;21.70;50.19;98664.13;104909;1263;61342;-47
2023/10/03 07:27:13;;;;;;;28.30;12.40;;;;;;;21.69;50.01;98662.30;105175;1260;73241;-47
2023/10/03 07:29:44;;;;;;;20.40;11.40;;;;;;;21.67;49.62;98666.23;105154;1264;66455;-46
2023/10/03 07:32:12;;;;;;;19.00;11.30;;;;;;;21.66;49.49;98665.96;104800;1260;72818;-47
2023/10/03 07:34:43;;;;;;;15.60;9.50;;;;;;;21.65;49.39;98668.13;104728;1260;61754;-47
2023/10/03 07:37:10;;;;;;;19.50;9.70;;;;;;;21.66;49.43;98664.48;105146;1261;61500;-46
2023/10/03 07:39:39;;;;;;;21.60;9.90;;;;;;;21.66;49.35;98665.71;105239;1260;74487;-47
2023/10/03 07:42:07;;;;;;;14.10;8.70;;;;;;;21.65;49.15;98663.21;104934;1260;66402;-47
2023/10/03 07:44:36;;;;;;;20.10;8.90;;;;;;;21.66;49.38;98664.56;104919;1263;73777;-53
2023/10/03 07:47:04;;;;;;;15.70;9.00;;;;;;;21.68;49.50;98664.00;105183;1264;61267;-50
2023/10/03 07:49:32;;;;;;;17.10;8.40;;;;;;;21.72;49.76;98667.94;105763;1261;61177;-49
2023/10/03 07:52:00;;;;;;;12.60;8.20;;;;;;;21.74;49.73;98661.45;105990;1260;74574;-49
2023/10/03 07:54:31;;;;;;;14.80;7.60;;;;;;;21.77;49.65;98660.73;104879;1260;66322;-50
2023/10/03 07:57:04;;;;;;;12.40;7.70;;;;;;;21.77;49.57;98658.80;105176;1261;72659;-50
2023/10/03 07:59:33;;;;;;;11.60;8.00;;;;;;;21.78;49.19;98655.08;105365;1261;61148;-44
2023/10/03 08:02:05;;;;;;;11.10;7.00;;;;;;;21.78;48.95;98653.67;104786;1259;61478;-50
2023/10/03 08:04:33;;;;;;;13.20;7.60;;;;;;;21.76;48.73;98652.83;108746;1259;74785;-53
2023/10/03 08:07:00;;;;;;;13.10;6.80;;;;;;;21.73;48.35;98646.77;108765;1259;66191;-49
2023/10/03 08:09:28;;;;;;;9.90;6.50;;;;;;;21.72;48.10;98646.48;106467;1260;72687;-43
2023/10/03 08:11:58;;;;;;;10.70;6.40;;;;;;;21.71;48.05;98646.86;105400;1261;61264;-43
2023/10/03 08:14:26;;;;;;;11.70;6.70;;;;;;;21.73;48.35;98647.15;105188;1261;61353;-45
2023/10/03 08:16:56;;;;;;;9.30;6.10;;;;;;;21.76;48.04;98646.05;107123;1260;75359;-44
2023/10/03 08:19:27;;;;;;;10.40;5.80;;;;;;;21.77;47.67;98647.90;105107;1261;67099;-45
2023/10/03 08:21:55;;;;;;;10.50;6.10;;;;;;;21.78;47.48;98647.67;105214;1261;74511;-44
2023/10/03 08:24:28;;;;;;;11.80;6.40;;;;;;;21.79;47.26;98646.92;105134;1264;61260;-43
2023/10/03 08:26:59;;;;;;;9.90;6.10;;;;;;;21.79;46.86;98647.31;104778;1260;62207;-46
2023/10/03 08:29:28;;;;;;;9.30;6.00;;;;;;;21.77;46.74;98644.23;104972;1264;74507;-46
2023/10/03 08:31:57;;;;;;;10.10;6.00;;;;;;;21.76;46.74;98642.95;104996;1263;67270;-41
2023/10/03 08:34:29;;;;;;;9.70;6.10;;;;;;;21.77;46.90;98642.04;105180;1259;71218;-43
2023/10/03 08:37:01;;;;;;;9.40;6.10;;;;;;;21.78;46.78;98644.96;105361;1260;61238;-45
2023/10/03 08:39:32;;;;;;;7.40;5.60;;;;;;;21.80;46.75;98646.40;105082;1260;61374;-45
2023/10/03 08:42:29;;;;;;;9.50;6.00;;;;;;;21.81;46.56;98647.38;104801;1261;74562;-44
2023/10/03 08:44:54;;;;;;;9.50;6.10;;;;;;;21.83;46.58;98645.88;105048;1263;66028;-42
2023/10/03 08:47:33;;;;;;;14.00;5.60;;;;;;;21.85;46.56;98643.98;105210;1264;73513;-43
2023/10/03 08:50:29;;;;;;;9.90;5.90;;;;;;;21.86;46.76;98647.06;104926;1266;61296;-43
2023/10/03 08:52:58;;;;;;;10.40;5.80;;;;;;;21.87;46.53;98641.02;105532;1259;61495;-42
2023/10/03 08:55:26;;;;;;;9.30;5.70;;;;;;;21.88;46.67;98638.38;105121;1261;75352;-42
2023/10/03 08:58:00;;;;;;;9.20;5.50;;;;;;;21.90;46.69;98632.73;105442;1259;67123;-42
2023/10/03 09:00:40;;;;;;;13.80;6.20;;;;;;;21.91;46.85;98634.48;105848;1259;72540;-43
2023/10/03 09:03:12;;;;;;;8.80;5.30;;;;;;;21.92;46.71;98630.32;104842;1260;300231;-43
2023/10/03 09:05:40;;;;;;;11.10;5.50;;;;;;;21.93;46.71;98627.55;105229;1260;61819;-43
2023/10/03 09:08:10;;;;;;;7.90;5.30;;;;;;;21.95;46.85;98629.37;105168;1259;73581;-39
2023/10/03 09:10:51;;;;;;;10.90;5.80;;;;;;;21.95;46.68;98628.38;105032;1260;67040;-42
2023/10/03 09:13:26;;;;;;;8.90;5.90;;;;;;;21.96;46.94;98627.23;104978;1264;73413;-41
2023/10/03 09:16:00;;;;;;;9.60;5.70;;;;;;;21.97;46.79;98624.61;105397;1262;61395;-43
2023/10/03 09:18:30;;;;;;;11.10;6.00;;;;;;;21.98;46.69;98621.05;106479;1261;61374;-42
2023/10/03 09:21:03;;;;;;;7.10;5.20;;;;;;;21.99;46.82;98624.98;104895;1261;75191;-42
2023/10/03 09:23:38;;;;;;;8.30;5.50;;;;;;;22.00;46.83;98621.82;105414;1260;65091;-43
2023/10/03 09:26:07;;;;;;;8.20;5.40;;;;;;;22.02;46.90;98620.21;104916;1260;74115;-42
2023/10/03 09:28:36;;;;;;;8.20;5.30;;;;;;;22.04;46.91;98621.81;105005;1266;61462;-43
2023/10/03 09:31:08;;;;;;;6.80;5.20;;;;;;;22.05;46.59;98618.11;104823;1261;61291;-40
2023/10/03 09:33:39;;;;;;;9.30;5.10;;;;;;;22.05;46.60;98616.72;105914;1260;75026;-40
2023/10/03 09:36:08;;;;;;;9.90;5.70;;;;;;;22.03;46.63;98614.09;104957;1263;65065;-40
2023/10/03 09:38:44;;;;;;;7.80;5.10;;;;;;;22.00;46.83;98613.24;105037;1259;72629;-41
2023/10/03 09:41:23;;;;;;;11.60;5.40;;;;;;;21.99;46.75;98607.70;105700;1263;61400;-42
2023/10/03 09:43:54;;;;;;;11.60;5.90;;;;;;;21.99;46.65;98606.04;105370;1261;61270;-42
2023/10/03 09:46:38;;;;;;;9.60;5.00;;;;;;;21.97;46.69;98603.11;105007;1264;74540;-47
2023/10/03 09:49:38;;;;;;;14.50;5.90;;;;;;;21.96;46.70;98602.14;104759;1259;65899;-41
2023/10/03 09:52:27;;;;;;;13.30;5.70;;;;;;;21.96;46.80;98604.25;105054;1259;75348;-40
2023/10/03 09:54:56;;;;;;;12.80;5.80;;;;;;;21.97;46.69;98603.41;105034;1264;61303;-40
2023/10/03 09:57:30;;;;;;;8.10;5.10;;;;;;;21.97;46.77;98598.75;104887;1263;61167;-41
2023/10/03 10:00:00;;;;;;;9.30;5.40;;;;;;;21.98;46.58;98597.83;105880;1263;74781;-41
2023/10/03 10:02:30;;;;;;;7.30;5.10;;;;;;;21.98;46.65;98593.95;105129;1261;66421;-39
2023/10/03 10:05:18;;;;;;;7.60;4.70;;;;;;;21.99;46.57;98591.85;107481;1261;73532;-40
2023/10/03 10:08:27;;;;;;;8.40;4.60;;;;;;;21.99;46.48;98586.77;104951;1265;61266;-40
2023/10/03 10:11:09;;;;;;;9.80;4.70;;;;;;;21.98;46.72;98583.41;105106;1260;61260;-42
2023/10/03 10:13:45;;;;;;;8.50;4.90;;;;;;;21.98;46.74;98576.80;104983;1261;75564;-40
2023/10/03 10:16:16;;;;;;;9.00;4.50;;;;;;;22.00;46.74;98574.29;105062;1266;65163;-39
2023/10/03 10:18:43;;;;;;;8.70;4.50;;;;;;;22.02;46.90;98577.36;105134;1259;72615;-39
2023/10/03 10:21:25;;;;;;;9.30;5.10;;;;;;;22.04;46.86;98573.45;105216;1263;61294;-40
2023/10/03 10:24:16;;;;;;;7.80;4.70;;;;;;;22.06;46.64;98569.38;105228;1259;61266;-42
2023/10/03 10:26:48;;;;;;;12.40;4.90;;;;;;;22.09;46.71;98566.08;105104;1261;74420;-38
2023/10/03 10:29:20;;;;;;;11.60;5.00;;;;;;;22.10;46.73;98557.22;104994;1264;65571;-39
2023/10/03 10:32:00;;;;;;;7.90;4.40;;;;;;;22.11;46.67;98555.38;105013;1263;72425;-41
2023/10/03 10:34:35;;;;;;;9.10;4.80;;;;;;;22.13;46.66;98550.98;104937;1261;61319;-40
2023/10/03 10:37:12;;;;;;;6.70;4.00;;;;;;;22.14;46.70;98542.99;105094;1260;61375;-40
2023/10/03 10:40:04;;;;;;;13.70;5.00;;;;;;;22.13;46.70;98543.04;105265;1262;74340;-40
2023/10/03 10:42:32;;;;;;;13.60;4.40;;;;;;;22.11;46.56;98532.40;104957;1264;65988;-40
2023/10/03 10:45:21;;;;;;;10.10;4.70;;;;;;;22.10;46.33;98526.29;105070;1264;73787;-41
2023/10/03 10:47:50;;;;;;;11.90;4.70;;;;;;;22.08;46.64;98517.96;105121;1264;61197;-41
2023/10/03 10:50:21;;;;;;;9.40;4.20;;;;;;;22.06;46.48;98524.48;105076;1259;61395;-39
2023/10/03 10:52:56;;;;;;;12.20;4.70;;;;;;;22.06;46.72;98514.50;105669;1260;75572;-42
2023/10/03 10:55:24;;;;;;;10.50;4.40;;;;;;;22.07;46.63;98511.50;106357;1263;66033;-40
2023/10/03 10:58:07;;;;;;;10.80;4.70;;;;;;;22.11;46.97;98510.01;105685;1259;71491;-42
2023/10/03 11:00:34;;;;;;;7.60;4.20;;;;;;;22.14;47.42;98502.77;104990;1260;61435;-41
2023/10/03 11:03:03;;;;;;;10.50;3.80;;;;;;;22.17;47.70;98501.36;104976;1264;61395;-40
2023/10/03 11:06:00;;;;;;;8.20;4.20;;;;;;;22.21;47.76;98508.30;105125;1260;73451;-39
2023/10/03 11:08:29;;;;;;;7.40;4.20;;;;;;;22.23;47.80;98508.77;105036;1264;66253;-39
2023/10/03 11:10:56;;;;;;;9.20;4.10;;;;;;;22.26;47.92;98505.86;104819;1259;72920;-40
2023/10/03 11:13:24;;;;;;;8.50;4.20;;;;;;;22.28;47.90;98502.80;105098;1263;61132;-45
2023/10/03 11:15:52;;;;;;;7.50;3.80;;;;;;;22.31;47.97;98499.52;105023;1259;61344;-40
2023/10/03 11:18:27;;;;;;;8.00;3.90;;;;;;;22.34;47.95;98500.73;105031;1263;75685;-42
2023/10/03 11:20:57;;;;;;;11.40;4.10;;;;;;;22.37;48.25;98494.41;105093;1263;66342;-42
2023/10/03 11:23:25;;;;;;;7.90;3.80;;;;;;;22.39;48.22;98490.80;104942;1260;73184;-43
2023/10/03 11:25:56;;;;;;;9.30;4.30;;;;;;;22.41;48.06;98487.98;105033;1263;61455;-43
2023/10/03 11:28:25;;;;;;;12.20;3.90;;;;;;;22.43;48.09;98481.16;105035;1264;61293;-44
2023/10/03 11:31:04;;;;;;;6.10;4.10;;;;;;;22.45;47.95;98481.45;105102;1264;74646;-47
2023/10/03 11:33:45;;;;;;;7.90;4.00;;;;;;;22.47;48.17;98477.27;104919;1263;65966;-40
2023/10/03 11:36:13;;;;;;;13.00;4.00;;;;;;;22.50;48.30;98470.63;104937;1259;72293;-38
2023/10/03 11:38:49;;;;;;;6.20;4.00;;;;;;;22.53;48.06;98465.46;105011;1264;61595;-41
2023/10/03 11:41:31;;;;;;;8.80;4.00;;;;;;;22.55;48.17;98464.73;104809;1265;61302;-40